Impacts METAR Board
IDs:

KPHX - Phoenix/Sky Harbor, AZ, US

Updated at: 1500 UTC 23 May 2018
Potential Impact None Slight Moderate High
Time 23/03Z 23/04Z 23/05Z 23/06Z 23/07Z 23/08Z 23/09Z 23/10Z 23/11Z 23/12Z 23/13Z 23/14Z 23/15Z
Temp86 84 82 81 77 77 75 73 72 72 70 72 75
Dewpt34 33 33 35 34 35 35 34 34 29 31 33 34
Altim29.74 29.77 29.79 29.80 29.81 29.82 29.82 29.82 29.82 29.83 29.85 29.86 29.88
VIS10 10 10 10 10 10 10 10 10 10 10 10 10
CIG-- -- -- -- -- -- -- -- -- -- -- -- --
CoverFEWCLRCLRCLRCLRCLRCLRCLRCLRCLRFEWCLRCLR
FltCatVFRVFRVFRVFRVFRVFRVFRVFRVFRVFRVFRVFRVFR
WX--------------------------
WDir270260260270240013080901501002200
WSpd14 13 11 9 4 0 5 8 7 10 7 4 0
WGst-- -- -- -- -- -- -- -- -- -- -- -- --
Raw hourly METARs
KPHX 230251Z 27014KT 10SM FEW100 30/01 A2974 RMK AO2 SLP054 T03000011 53015
KPHX 230351Z 26013KT 10SM CLR 29/01 A2977 RMK AO2 SLP064 T02890006
KPHX 230451Z 26011KT 10SM CLR 28/01 A2979 RMK AO2 SLP070 T02780006
KPHX 230551Z 27009KT 10SM CLR 27/02 A2980 RMK AO2 SLP074 T02720017 10339 20272 51020
KPHX 230651Z 24004KT 10SM CLR 25/01 A2981 RMK AO2 SLP077 T02500011 403500211
KPHX 230751Z 00000KT 10SM CLR 25/02 A2982 RMK AO2 SLP078 T02500017
KPHX 230851Z 13005KT 10SM CLR 24/02 A2982 RMK AO2 SLP078 T02390017 51004
KPHX 230951Z 08008KT 10SM CLR 23/01 A2982 RMK AO2 SLP079 T02280011
KPHX 231051Z 09007KT 10SM CLR 22/01 A2982 RMK AO2 SLP080 T02220011
KPHX 231151Z 15010KT 10SM CLR 22/M02 A2983 RMK AO2 SLP086 T02221017 10272 20217 53006
KPHX 231251Z 10007KT 10SM FEW250 21/M01 A2985 RMK AO2 SLP090 T02111006
KPHX 231351Z 22004KT 10SM CLR 22/01 A2986 RMK AO2 SLP095 T02220006
KPHX 231451Z 00000KT 10SM CLR 24/01 A2988 RMK AO2 SLP099 T02390011 51013



Page loaded:  15:06 UTC  |   08:06 AM Pacific  |   09:06 AM Mountain  |   10:06 AM Central  |   11:06 AM Eastern

 

ADVISORIES

FORECASTS

FORECASTS

OBSERVATIONS

USER TOOLS

ABOUT US